Knickerbocker — WDC7987 — position and weather

sailwx.info

Track history (hours):
 
Tides and Currents Weather Stations Pressure Air Temp Water Temp Dewpoint Dewpoint Depression Visibility Wind Speed Wind Dir Waves Ship Positions

Knickerbocker

Owner: Christopher Corp., Newport, RI. More information available from US FCC via Universal Licensing System and Coast Guard Vessel Documentation Center.

Last reported at 2017-Aug-14 12:13 UTC. Time now 2017-Aug-18 03:03 UTC.
Position N 41°29' W 071°20'.

Length 36 m; draft 3.6 m.

Type: Sailing vessel. MMSI: 367079960.

Date/timePositionNaut miles runAvg speedWind from/ knotsBaromVisibWave heightAir tempDewpointWater temp
2017-Aug-14 12:13N 41°29' W 071°20'0 0.0
2017-Aug-14 11:19N 41°29' W 071°20'0 0.0
2017-Aug-14 10:43N 41°29' W 071°20'0 0.0
2017-Aug-14 10:30N 41°29' W 071°20'  
2017-Aug-12 03:33N 41°26' W 070°55'0 0.1
2017-Aug-12 03:09N 41°26' W 070°54'0 0.0
2017-Aug-12 02:57N 41°26' W 070°54'0 0.0
2017-Aug-12 02:30N 41°26' W 070°54'0 0.0
2017-Aug-12 01:42N 41°26' W 070°54'19 1.5
2017-Aug-11 13:09N 41°29' W 071°20'0 0.0
2017-Aug-11 12:54N 41°29' W 071°20'0 0.0
2017-Aug-11 12:24N 41°29' W 071°20'0 0.0
2017-Aug-11 12:00N 41°29' W 071°20'0 0.0
2017-Aug-11 11:27N 41°29' W 071°20'0 0.0
2017-Aug-11 11:00N 41°29' W 071°20'0 0.0
2017-Aug-11 10:24N 41°29' W 071°20'0 0.0
2017-Aug-11 09:57N 41°29' W 071°20'0 0.0
2017-Aug-11 09:27N 41°29' W 071°20'0 0.0
2017-Aug-11 07:42N 41°29' W 071°20'0 0.0
2017-Aug-11 07:24N 41°29' W 071°20'0 0.0
2017-Aug-11 06:48N 41°29' W 071°20'0 0.0
2017-Aug-11 06:30N 41°29' W 071°20'0 0.0
2017-Aug-11 05:48N 41°29' W 071°20'0 0.0
2017-Aug-11 05:30N 41°29' W 071°20'0 0.0
2017-Aug-11 04:57N 41°29' W 071°20'0 0.0
2017-Aug-11 04:27N 41°29' W 071°20'0 0.0
2017-Aug-11 04:00N 41°29' W 071°20'0 0.0
2017-Aug-11 03:27N 41°29' W 071°20'0 0.0
2017-Aug-11 02:30N 41°29' W 071°20'0 0.0
2017-Aug-11 00:38N 41°29' W 071°20'  
2017-Aug-07 12:08N 41°46' W 070°31'0 3.8
2017-Aug-07 12:00N 41°46' W 070°31'3 5.0
2017-Aug-07 11:30N 41°48' W 070°28'4 7.9
2017-Aug-07 11:01N 41°52' W 070°26'5 9.2
2017-Aug-07 10:30N 41°56' W 070°23'5 9.3
2017-Aug-07 10:00N 42°00' W 070°21'5 9.5
2017-Aug-07 09:30N 42°05' W 070°19'5 9.6
2017-Aug-07 09:00N 42°09' W 070°16'5 9.1
2017-Aug-07 08:30N 42°13' W 070°13'5 9.2
2017-Aug-07 08:00N 42°17' W 070°10'510.0
2017-Aug-07 07:30N 42°22' W 070°07'510.6
2017-Aug-07 07:00N 42°26' W 070°04'510.3
2017-Aug-07 06:30N 42°31' W 070°01'5 9.9
2017-Aug-07 06:00N 42°36' W 069°59'5 9.9
2017-Aug-07 05:30N 42°40' W 069°56'510.0
2017-Aug-07 05:00N 42°45' W 069°53'510.0
2017-Aug-07 04:30N 42°49' W 069°50'84 9.3
2017-Aug-06 19:32N 44°05' W 069°02'0 1.3
2017-Aug-06 19:23N 44°05' W 069°02'2 0.5
2017-Aug-06 14:39N 44°06' W 069°05'1 5.1
2017-Aug-06 14:29N 44°07' W 069°04'5 8.5
2017-Aug-06 13:52N 44°12' W 069°03'1 2.6
2017-Aug-06 13:29N 44°13' W 069°03'0 0.0
2017-Aug-06 12:56N 44°13' W 069°03'0 0.0
2017-Aug-06 12:26N 44°13' W 069°03'0 0.0
2017-Aug-06 11:53N 44°13' W 069°03'0 0.0
2017-Aug-06 11:29N 44°13' W 069°03'0 0.0
2017-Aug-06 10:47N 44°13' W 069°03'0 0.1
2017-Aug-06 10:26N 44°13' W 069°03'0 0.0
2017-Aug-06 08:38N 44°13' W 069°03'0 0.0
2017-Aug-06 08:29N 44°13' W 069°03'0 0.0
2017-Aug-06 07:23N 44°13' W 069°03'0 0.1
2017-Aug-06 06:53N 44°13' W 069°03'0 0.0
2017-Aug-06 06:23N 44°13' W 069°03'0 0.0
2017-Aug-06 05:59N 44°13' W 069°03'0 0.0
2017-Aug-06 04:59N 44°13' W 069°03'0 0.0
2017-Aug-05 20:23N 44°13' W 069°03'0 0.0
2017-Aug-05 19:53N 44°13' W 069°03'0 0.0
2017-Aug-05 18:05N 44°13' W 069°03'0 0.0
2017-Aug-05 17:56N 44°13' W 069°03'0 0.0
2017-Aug-05 17:30N 44°13' W 069°03'2 4.1
2017-Aug-05 17:00N 44°12' W 069°00'5 9.6
2017-Aug-05 16:30N 44°12' W 068°54'4 7.6
2017-Aug-05 16:00N 44°11' W 068°49'1 1.2
2017-Aug-05 15:28N 44°10' W 068°49'0 0.0
2017-Aug-05 14:58N 44°10' W 068°49'0 0.0
2017-Aug-05 14:28N 44°10' W 068°49'0 0.0
2017-Aug-05 13:58N 44°10' W 068°49'0 0.0
2017-Aug-05 13:28N 44°10' W 068°49'0 0.0
2017-Aug-05 12:55N 44°10' W 068°49'0 0.0
2017-Aug-05 12:25N 44°10' W 068°49'0 0.0
2017-Aug-05 11:55N 44°10' W 068°49'0 0.0
2017-Aug-05 11:25N 44°10' W 068°49'0 0.0
2017-Aug-05 10:55N 44°10' W 068°49'0 0.0
2017-Aug-05 10:25N 44°10' W 068°49'0 0.0
2017-Aug-05 09:55N 44°10' W 068°49'0 0.0
2017-Aug-05 09:19N 44°10' W 068°49'0 0.0
2017-Aug-05 08:55N 44°10' W 068°49'0 0.0
2017-Aug-05 08:25N 44°10' W 068°49'0 0.0
2017-Aug-05 07:55N 44°10' W 068°49'0 0.0
2017-Aug-05 07:25N 44°10' W 068°49'0 0.0
2017-Aug-05 06:55N 44°10' W 068°49'0 0.0
2017-Aug-05 06:25N 44°10' W 068°49'0 0.0
2017-Aug-05 05:55N 44°10' W 068°49'0 0.0
2017-Aug-05 05:25N 44°10' W 068°49'0 0.0
2017-Aug-05 04:55N 44°10' W 068°49'0 0.0
2017-Aug-05 04:25N 44°10' W 068°49'0 0.0
2017-Aug-05 03:55N 44°10' W 068°49'0 0.0
2017-Aug-05 03:25N 44°10' W 068°49'0 0.0
2017-Aug-05 02:55N 44°10' W 068°49'0 0.0
2017-Aug-05 02:25N 44°10' W 068°49'0 0.0
2017-Aug-05 01:55N 44°10' W 068°49'0 0.0
2017-Aug-05 01:25N 44°10' W 068°49'0 0.0
2017-Aug-05 00:58N 44°10' W 068°49'0 0.0
2017-Aug-05 00:25N 44°10' W 068°49'0 0.0
2017-Aug-04 23:52N 44°10' W 068°49'0 0.0
2017-Aug-04 23:25N 44°10' W 068°49'0 0.0
2017-Aug-04 22:55N 44°10' W 068°49'0 0.0
2017-Aug-04 22:25N 44°10' W 068°49'0 0.0
2017-Aug-04 21:55N 44°10' W 068°49'0 0.0
2017-Aug-04 21:22N 44°10' W 068°49'0 0.0
2017-Aug-04 20:58N 44°10' W 068°49'0 0.0
2017-Aug-04 20:28N 44°10' W 068°49'0 0.0
2017-Aug-04 19:58N 44°10' W 068°49'0 0.1
2017-Aug-04 19:30N 44°10' W 068°49'3 6.8
2017-Aug-04 19:00N 44°09' W 068°44'4 8.6
2017-Aug-04 18:30N 44°07' W 068°39'5 9.1
2017-Aug-04 18:00N 44°08' W 068°33'5 9.1
2017-Aug-04 17:30N 44°07' W 068°27'5 9.5
2017-Aug-04 16:59N 44°09' W 068°21'  
Track history (hours):
 
Tides and Currents Weather Stations Pressure Air Temp Water Temp Dewpoint Dewpoint Depression Visibility Wind Speed Wind Dir Waves Ship Positions

Knickerbocker

Owner: Christopher Corp., Newport, RI. More information available from US FCC via Universal Licensing System and Coast Guard Vessel Documentation Center.

Last reported at 2017-Aug-14 12:13 UTC. Time now 2017-Aug-18 03:03 UTC.
Position N 41°29' W 071°20'.

Length 36 m; draft 3.6 m.

Type: Sailing vessel. MMSI: 367079960.

Date/timePositionNaut miles runAvg speedWind from/ knotsBaromVisibWave heightAir tempDewpointWater temp
2017-Aug-14 12:13N 41°29' W 071°20'0 0.0
2017-Aug-14 11:19N 41°29' W 071°20'0 0.0
2017-Aug-14 10:43N 41°29' W 071°20'0 0.0
2017-Aug-14 10:30N 41°29' W 071°20'  
2017-Aug-12 03:33N 41°26' W 070°55'0 0.1
2017-Aug-12 03:09N 41°26' W 070°54'0 0.0
2017-Aug-12 02:57N 41°26' W 070°54'0 0.0
2017-Aug-12 02:30N 41°26' W 070°54'0 0.0
2017-Aug-12 01:42N 41°26' W 070°54'19 1.5
2017-Aug-11 13:09N 41°29' W 071°20'0 0.0
2017-Aug-11 12:54N 41°29' W 071°20'0 0.0
2017-Aug-11 12:24N 41°29' W 071°20'0 0.0
2017-Aug-11 12:00N 41°29' W 071°20'0 0.0
2017-Aug-11 11:27N 41°29' W 071°20'0 0.0
2017-Aug-11 11:00N 41°29' W 071°20'0 0.0
2017-Aug-11 10:24N 41°29' W 071°20'0 0.0
2017-Aug-11 09:57N 41°29' W 071°20'0 0.0
2017-Aug-11 09:27N 41°29' W 071°20'0 0.0
2017-Aug-11 07:42N 41°29' W 071°20'0 0.0
2017-Aug-11 07:24N 41°29' W 071°20'0 0.0
2017-Aug-11 06:48N 41°29' W 071°20'0 0.0
2017-Aug-11 06:30N 41°29' W 071°20'0 0.0
2017-Aug-11 05:48N 41°29' W 071°20'0 0.0
2017-Aug-11 05:30N 41°29' W 071°20'0 0.0
2017-Aug-11 04:57N 41°29' W 071°20'0 0.0
2017-Aug-11 04:27N 41°29' W 071°20'0 0.0
2017-Aug-11 04:00N 41°29' W 071°20'0 0.0
2017-Aug-11 03:27N 41°29' W 071°20'0 0.0
2017-Aug-11 02:30N 41°29' W 071°20'0 0.0
2017-Aug-11 00:38N 41°29' W 071°20'  
2017-Aug-07 12:08N 41°46' W 070°31'0 3.8
2017-Aug-07 12:00N 41°46' W 070°31'3 5.0
2017-Aug-07 11:30N 41°48' W 070°28'4 7.9
2017-Aug-07 11:01N 41°52' W 070°26'5 9.2
2017-Aug-07 10:30N 41°56' W 070°23'5 9.3
2017-Aug-07 10:00N 42°00' W 070°21'5 9.5
2017-Aug-07 09:30N 42°05' W 070°19'5 9.6
2017-Aug-07 09:00N 42°09' W 070°16'5 9.1
2017-Aug-07 08:30N 42°13' W 070°13'5 9.2
2017-Aug-07 08:00N 42°17' W 070°10'510.0
2017-Aug-07 07:30N 42°22' W 070°07'510.6
2017-Aug-07 07:00N 42°26' W 070°04'510.3
2017-Aug-07 06:30N 42°31' W 070°01'5 9.9
2017-Aug-07 06:00N 42°36' W 069°59'5 9.9
2017-Aug-07 05:30N 42°40' W 069°56'510.0
2017-Aug-07 05:00N 42°45' W 069°53'510.0
2017-Aug-07 04:30N 42°49' W 069°50'84 9.3
2017-Aug-06 19:32N 44°05' W 069°02'0 1.3
2017-Aug-06 19:23N 44°05' W 069°02'2 0.5
2017-Aug-06 14:39N 44°06' W 069°05'1 5.1
2017-Aug-06 14:29N 44°07' W 069°04'5 8.5
2017-Aug-06 13:52N 44°12' W 069°03'1 2.6
2017-Aug-06 13:29N 44°13' W 069°03'0 0.0
2017-Aug-06 12:56N 44°13' W 069°03'0 0.0
2017-Aug-06 12:26N 44°13' W 069°03'0 0.0
2017-Aug-06 11:53N 44°13' W 069°03'0 0.0
2017-Aug-06 11:29N 44°13' W 069°03'0 0.0
2017-Aug-06 10:47N 44°13' W 069°03'0 0.1
2017-Aug-06 10:26N 44°13' W 069°03'0 0.0
2017-Aug-06 08:38N 44°13' W 069°03'0 0.0
2017-Aug-06 08:29N 44°13' W 069°03'0 0.0
2017-Aug-06 07:23N 44°13' W 069°03'0 0.1
2017-Aug-06 06:53N 44°13' W 069°03'0 0.0
2017-Aug-06 06:23N 44°13' W 069°03'0 0.0
2017-Aug-06 05:59N 44°13' W 069°03'0 0.0
2017-Aug-06 04:59N 44°13' W 069°03'0 0.0
2017-Aug-05 20:23N 44°13' W 069°03'0 0.0
2017-Aug-05 19:53N 44°13' W 069°03'0 0.0
2017-Aug-05 18:05N 44°13' W 069°03'0 0.0
2017-Aug-05 17:56N 44°13' W 069°03'0 0.0
2017-Aug-05 17:30N 44°13' W 069°03'2 4.1
2017-Aug-05 17:00N 44°12' W 069°00'5 9.6
2017-Aug-05 16:30N 44°12' W 068°54'4 7.6
2017-Aug-05 16:00N 44°11' W 068°49'1 1.2
2017-Aug-05 15:28N 44°10' W 068°49'0 0.0
2017-Aug-05 14:58N 44°10' W 068°49'0 0.0
2017-Aug-05 14:28N 44°10' W 068°49'0 0.0
2017-Aug-05 13:58N 44°10' W 068°49'0 0.0
2017-Aug-05 13:28N 44°10' W 068°49'0 0.0
2017-Aug-05 12:55N 44°10' W 068°49'0 0.0
2017-Aug-05 12:25N 44°10' W 068°49'0 0.0
2017-Aug-05 11:55N 44°10' W 068°49'0 0.0
2017-Aug-05 11:25N 44°10' W 068°49'0 0.0
2017-Aug-05 10:55N 44°10' W 068°49'0 0.0
2017-Aug-05 10:25N 44°10' W 068°49'0 0.0
2017-Aug-05 09:55N 44°10' W 068°49'0 0.0
2017-Aug-05 09:19N 44°10' W 068°49'0 0.0
2017-Aug-05 08:55N 44°10' W 068°49'0 0.0
2017-Aug-05 08:25N 44°10' W 068°49'0 0.0
2017-Aug-05 07:55N 44°10' W 068°49'0 0.0
2017-Aug-05 07:25N 44°10' W 068°49'0 0.0
2017-Aug-05 06:55N 44°10' W 068°49'0 0.0
2017-Aug-05 06:25N 44°10' W 068°49'0 0.0
2017-Aug-05 05:55N 44°10' W 068°49'0 0.0
2017-Aug-05 05:25N 44°10' W 068°49'0 0.0
2017-Aug-05 04:55N 44°10' W 068°49'0 0.0
2017-Aug-05 04:25N 44°10' W 068°49'0 0.0
2017-Aug-05 03:55N 44°10' W 068°49'0 0.0
2017-Aug-05 03:25N 44°10' W 068°49'0 0.0
2017-Aug-05 02:55N 44°10' W 068°49'0 0.0
2017-Aug-05 02:25N 44°10' W 068°49'0 0.0
2017-Aug-05 01:55N 44°10' W 068°49'0 0.0
2017-Aug-05 01:25N 44°10' W 068°49'0 0.0
2017-Aug-05 00:58N 44°10' W 068°49'0 0.0
2017-Aug-05 00:25N 44°10' W 068°49'0 0.0
2017-Aug-04 23:52N 44°10' W 068°49'0 0.0
2017-Aug-04 23:25N 44°10' W 068°49'0 0.0
2017-Aug-04 22:55N 44°10' W 068°49'0 0.0
2017-Aug-04 22:25N 44°10' W 068°49'0 0.0
2017-Aug-04 21:55N 44°10' W 068°49'0 0.0
2017-Aug-04 21:22N 44°10' W 068°49'0 0.0
2017-Aug-04 20:58N 44°10' W 068°49'0 0.0
2017-Aug-04 20:28N 44°10' W 068°49'0 0.0
2017-Aug-04 19:58N 44°10' W 068°49'0 0.1
2017-Aug-04 19:30N 44°10' W 068°49'3 6.8
2017-Aug-04 19:00N 44°09' W 068°44'4 8.6
2017-Aug-04 18:30N 44°07' W 068°39'5 9.1
2017-Aug-04 18:00N 44°08' W 068°33'5 9.1
2017-Aug-04 17:30N 44°07' W 068°27'5 9.5
2017-Aug-04 16:59N 44°09' W 068°21'  

Dump ship's entire track history